sensor_id;sensor_type;location;lat;lon;timestamp;P1;durP1;ratioP1;P2;durP2;ratioP2
19782;SDS011;10051;40.294;-3.754;2023-11-19T00:00:06;18.13;;;10.90;;
19782;SDS011;10051;40.294;-3.754;2023-11-19T00:02:37;18.98;;;10.52;;
19782;SDS011;10051;40.294;-3.754;2023-11-19T00:05:04;17.65;;;10.63;;
19782;SDS011;10051;40.294;-3.754;2023-11-19T00:07:34;18.80;;;10.50;;
19782;SDS011;10051;40.294;-3.754;2023-11-19T00:10:01;17.38;;;10.93;;
19782;SDS011;10051;40.294;-3.754;2023-11-19T00:12:32;20.13;;;10.75;;
19782;SDS011;10051;40.294;-3.754;2023-11-19T00:14:57;17.13;;;10.63;;
19782;SDS011;10051;40.294;-3.754;2023-11-19T00:17:23;16.70;;;10.73;;
19782;SDS011;10051;40.294;-3.754;2023-11-19T00:19:49;18.63;;;11.00;;
19782;SDS011;10051;40.294;-3.754;2023-11-19T00:22:16;17.65;;;10.52;;
19782;SDS011;10051;40.294;-3.754;2023-11-19T00:24:42;16.67;;;10.52;;
19782;SDS011;10051;40.294;-3.754;2023-11-19T00:27:07;20.52;;;10.57;;
19782;SDS011;10051;40.294;-3.754;2023-11-19T00:29:33;16.38;;;10.50;;
19782;SDS011;10051;40.294;-3.754;2023-11-19T00:31:59;17.90;;;10.95;;
19782;SDS011;10051;40.294;-3.754;2023-11-19T00:34:24;18.00;;;11.27;;
19782;SDS011;10051;40.294;-3.754;2023-11-19T00:36:51;18.88;;;10.85;;
19782;SDS011;10051;40.294;-3.754;2023-11-19T00:39:17;16.88;;;10.45;;
19782;SDS011;10051;40.294;-3.754;2023-11-19T00:41:43;16.98;;;10.50;;
19782;SDS011;10051;40.294;-3.754;2023-11-19T00:44:08;16.52;;;10.65;;
19782;SDS011;10051;40.294;-3.754;2023-11-19T00:46:34;21.60;;;11.00;;
19782;SDS011;10051;40.294;-3.754;2023-11-19T00:49:00;18.10;;;10.88;;
19782;SDS011;10051;40.294;-3.754;2023-11-19T00:51:29;17.33;;;11.32;;
19782;SDS011;10051;40.294;-3.754;2023-11-19T00:53:56;18.65;;;11.15;;
19782;SDS011;10051;40.294;-3.754;2023-11-19T00:56:24;18.20;;;10.88;;
19782;SDS011;10051;40.294;-3.754;2023-11-19T00:58:52;16.38;;;10.88;;
19782;SDS011;10051;40.294;-3.754;2023-11-19T01:01:19;18.50;;;11.60;;
19782;SDS011;10051;40.294;-3.754;2023-11-19T01:03:45;19.05;;;10.60;;
19782;SDS011;10051;40.294;-3.754;2023-11-19T01:06:11;19.13;;;11.10;;
19782;SDS011;10051;40.294;-3.754;2023-11-19T01:08:37;16.75;;;10.48;;
19782;SDS011;10051;40.294;-3.754;2023-11-19T01:11:03;16.92;;;10.68;;
19782;SDS011;10051;40.294;-3.754;2023-11-19T01:13:32;17.20;;;10.77;;
19782;SDS011;10051;40.294;-3.754;2023-11-19T01:16:00;20.55;;;10.52;;
19782;SDS011;10051;40.294;-3.754;2023-11-19T01:18:27;17.90;;;10.90;;
19782;SDS011;10051;40.294;-3.754;2023-11-19T01:20:53;20.33;;;10.45;;
19782;SDS011;10051;40.294;-3.754;2023-11-19T01:23:18;17.48;;;10.73;;
19782;SDS011;10051;40.294;-3.754;2023-11-19T01:25:44;18.70;;;10.80;;
19782;SDS011;10051;40.294;-3.754;2023-11-19T01:28:10;18.13;;;10.30;;
19782;SDS011;10051;40.294;-3.754;2023-11-19T01:30:36;16.52;;;10.32;;
19782;SDS011;10051;40.294;-3.754;2023-11-19T01:33:01;17.60;;;10.43;;
19782;SDS011;10051;40.294;-3.754;2023-11-19T01:35:27;18.92;;;10.23;;
19782;SDS011;10051;40.294;-3.754;2023-11-19T01:37:53;17.13;;;10.15;;
19782;SDS011;10051;40.294;-3.754;2023-11-19T01:40:21;17.58;;;10.52;;
19782;SDS011;10051;40.294;-3.754;2023-11-19T01:42:47;16.42;;;10.63;;
19782;SDS011;10051;40.294;-3.754;2023-11-19T01:45:20;18.10;;;10.88;;
19782;SDS011;10051;40.294;-3.754;2023-11-19T01:47:52;17.83;;;11.18;;
19782;SDS011;10051;40.294;-3.754;2023-11-19T01:50:17;19.50;;;11.45;;
19782;SDS011;10051;40.294;-3.754;2023-11-19T01:52:44;20.20;;;11.35;;
19782;SDS011;10051;40.294;-3.754;2023-11-19T01:55:11;19.85;;;11.13;;
19782;SDS011;10051;40.294;-3.754;2023-11-19T01:57:37;19.20;;;10.95;;
19782;SDS011;10051;40.294;-3.754;2023-11-19T02:00:06;18.55;;;11.50;;
19782;SDS011;10051;40.294;-3.754;2023-11-19T02:02:36;17.05;;;10.88;;
19782;SDS011;10051;40.294;-3.754;2023-11-19T02:05:02;16.95;;;10.90;;
19782;SDS011;10051;40.294;-3.754;2023-11-19T02:07:28;21.02;;;11.20;;
19782;SDS011;10051;40.294;-3.754;2023-11-19T02:09:57;19.67;;;11.00;;
19782;SDS011;10051;40.294;-3.754;2023-11-19T02:12:25;17.65;;;11.27;;
19782;SDS011;10051;40.294;-3.754;2023-11-19T02:14:53;18.67;;;10.88;;
19782;SDS011;10051;40.294;-3.754;2023-11-19T02:17:26;20.33;;;10.73;;
19782;SDS011;10051;40.294;-3.754;2023-11-19T02:19:59;18.70;;;10.32;;
19782;SDS011;10051;40.294;-3.754;2023-11-19T02:22:26;18.73;;;10.57;;
19782;SDS011;10051;40.294;-3.754;2023-11-19T02:24:54;18.13;;;10.68;;
19782;SDS011;10051;40.294;-3.754;2023-11-19T02:30:37;15.27;;;9.73;;
19782;SDS011;10051;40.294;-3.754;2023-11-19T02:33:06;14.65;;;9.50;;
19782;SDS011;10051;40.294;-3.754;2023-11-19T02:35:34;14.50;;;8.90;;
19782;SDS011;10051;40.294;-3.754;2023-11-19T02:38:09;15.50;;;9.13;;
19782;SDS011;10051;40.294;-3.754;2023-11-19T02:40:41;14.77;;;9.13;;
19782;SDS011;10051;40.294;-3.754;2023-11-19T02:43:07;13.82;;;8.90;;
19782;SDS011;10051;40.294;-3.754;2023-11-19T02:45:33;15.15;;;8.65;;
19782;SDS011;10051;40.294;-3.754;2023-11-19T02:47:59;15.15;;;9.38;;
19782;SDS011;10051;40.294;-3.754;2023-11-19T02:50:28;15.25;;;9.45;;
19782;SDS011;10051;40.294;-3.754;2023-11-19T02:52:54;16.17;;;9.35;;
19782;SDS011;10051;40.294;-3.754;2023-11-19T02:55:21;17.67;;;9.82;;
19782;SDS011;10051;40.294;-3.754;2023-11-19T02:57:49;14.80;;;9.57;;
19782;SDS011;10051;40.294;-3.754;2023-11-19T03:00:16;16.30;;;9.88;;
19782;SDS011;10051;40.294;-3.754;2023-11-19T03:03:12;16.13;;;10.38;;
19782;SDS011;10051;40.294;-3.754;2023-11-19T03:05:46;16.38;;;9.70;;
19782;SDS011;10051;40.294;-3.754;2023-11-19T03:08:12;15.70;;;9.70;;
19782;SDS011;10051;40.294;-3.754;2023-11-19T03:10:38;17.58;;;10.57;;
19782;SDS011;10051;40.294;-3.754;2023-11-19T03:13:04;16.15;;;10.45;;
19782;SDS011;10051;40.294;-3.754;2023-11-19T03:15:29;18.13;;;10.27;;
19782;SDS011;10051;40.294;-3.754;2023-11-19T03:17:55;16.27;;;10.43;;
19782;SDS011;10051;40.294;-3.754;2023-11-19T03:20:21;17.58;;;10.55;;
19782;SDS011;10051;40.294;-3.754;2023-11-19T03:22:48;17.92;;;10.90;;
19782;SDS011;10051;40.294;-3.754;2023-11-19T03:25:15;15.90;;;10.48;;
19782;SDS011;10051;40.294;-3.754;2023-11-19T03:27:41;17.77;;;10.65;;
19782;SDS011;10051;40.294;-3.754;2023-11-19T03:30:07;18.52;;;10.95;;
19782;SDS011;10051;40.294;-3.754;2023-11-19T03:32:37;15.90;;;10.23;;
19782;SDS011;10051;40.294;-3.754;2023-11-19T03:35:04;17.00;;;10.60;;
19782;SDS011;10051;40.294;-3.754;2023-11-19T03:37:32;16.45;;;10.50;;
19782;SDS011;10051;40.294;-3.754;2023-11-19T03:39:58;17.35;;;10.23;;
19782;SDS011;10051;40.294;-3.754;2023-11-19T03:42:25;17.02;;;10.60;;
19782;SDS011;10051;40.294;-3.754;2023-11-19T03:44:52;15.30;;;9.65;;
19782;SDS011;10051;40.294;-3.754;2023-11-19T03:47:19;17.02;;;10.45;;
19782;SDS011;10051;40.294;-3.754;2023-11-19T03:49:51;19.05;;;10.73;;
19782;SDS011;10051;40.294;-3.754;2023-11-19T03:52:17;17.00;;;10.68;;
19782;SDS011;10051;40.294;-3.754;2023-11-19T03:54:44;16.10;;;10.40;;
19782;SDS011;10051;40.294;-3.754;2023-11-19T03:57:13;17.08;;;10.23;;
19782;SDS011;10051;40.294;-3.754;2023-11-19T03:59:41;17.10;;;10.27;;
19782;SDS011;10051;40.294;-3.754;2023-11-19T04:02:07;15.35;;;9.98;;
19782;SDS011;10051;40.294;-3.754;2023-11-19T04:04:33;18.42;;;10.20;;
19782;SDS011;10051;40.294;-3.754;2023-11-19T04:07:04;15.90;;;10.00;;
19782;SDS011;10051;40.294;-3.754;2023-11-19T04:09:30;15.27;;;9.68;;
19782;SDS011;10051;40.294;-3.754;2023-11-19T04:12:00;15.32;;;9.35;;
19782;SDS011;10051;40.294;-3.754;2023-11-19T04:14:26;14.52;;;9.38;;
19782;SDS011;10051;40.294;-3.754;2023-11-19T04:16:52;15.35;;;9.30;;
19782;SDS011;10051;40.294;-3.754;2023-11-19T04:19:19;18.02;;;9.23;;
19782;SDS011;10051;40.294;-3.754;2023-11-19T04:21:45;16.55;;;9.00;;
19782;SDS011;10051;40.294;-3.754;2023-11-19T04:24:11;14.23;;;8.90;;
19782;SDS011;10051;40.294;-3.754;2023-11-19T04:26:44;15.73;;;9.15;;
19782;SDS011;10051;40.294;-3.754;2023-11-19T04:29:14;14.95;;;9.30;;
19782;SDS011;10051;40.294;-3.754;2023-11-19T04:31:44;14.13;;;9.18;;
19782;SDS011;10051;40.294;-3.754;2023-11-19T04:34:11;15.75;;;8.73;;
19782;SDS011;10051;40.294;-3.754;2023-11-19T04:36:37;15.48;;;9.07;;
19782;SDS011;10051;40.294;-3.754;2023-11-19T04:39:03;14.80;;;8.68;;
19782;SDS011;10051;40.294;-3.754;2023-11-19T04:41:51;14.00;;;8.63;;
19782;SDS011;10051;40.294;-3.754;2023-11-19T04:44:18;13.18;;;8.57;;
19782;SDS011;10051;40.294;-3.754;2023-11-19T04:46:44;12.00;;;7.80;;
19782;SDS011;10051;40.294;-3.754;2023-11-19T04:49:10;15.70;;;8.65;;
19782;SDS011;10051;40.294;-3.754;2023-11-19T04:51:42;13.18;;;8.50;;
19782;SDS011;10051;40.294;-3.754;2023-11-19T04:54:13;13.10;;;8.68;;
19782;SDS011;10051;40.294;-3.754;2023-11-19T04:56:39;13.93;;;8.70;;
19782;SDS011;10051;40.294;-3.754;2023-11-19T04:59:06;15.00;;;9.18;;
19782;SDS011;10051;40.294;-3.754;2023-11-19T05:01:32;18.25;;;8.68;;
19782;SDS011;10051;40.294;-3.754;2023-11-19T05:03:58;14.10;;;8.98;;
19782;SDS011;10051;40.294;-3.754;2023-11-19T05:06:31;16.17;;;9.18;;
19782;SDS011;10051;40.294;-3.754;2023-11-19T05:08:58;16.75;;;9.80;;
19782;SDS011;10051;40.294;-3.754;2023-11-19T05:11:33;16.80;;;10.25;;
19782;SDS011;10051;40.294;-3.754;2023-11-19T05:13:59;20.42;;;10.88;;
19782;SDS011;10051;40.294;-3.754;2023-11-19T05:16:29;16.83;;;10.15;;
19782;SDS011;10051;40.294;-3.754;2023-11-19T05:18:55;18.52;;;10.60;;
19782;SDS011;10051;40.294;-3.754;2023-11-19T05:21:24;17.02;;;10.13;;
19782;SDS011;10051;40.294;-3.754;2023-11-19T05:23:50;19.10;;;10.55;;
19782;SDS011;10051;40.294;-3.754;2023-11-19T05:26:19;17.85;;;10.40;;
19782;SDS011;10051;40.294;-3.754;2023-11-19T05:28:52;18.23;;;10.40;;
19782;SDS011;10051;40.294;-3.754;2023-11-19T05:31:18;18.13;;;10.80;;
19782;SDS011;10051;40.294;-3.754;2023-11-19T05:33:44;18.83;;;10.93;;
19782;SDS011;10051;40.294;-3.754;2023-11-19T05:36:10;19.63;;;10.60;;
19782;SDS011;10051;40.294;-3.754;2023-11-19T05:38:37;17.42;;;10.00;;
19782;SDS011;10051;40.294;-3.754;2023-11-19T05:41:03;17.75;;;9.23;;
19782;SDS011;10051;40.294;-3.754;2023-11-19T05:43:30;19.02;;;9.75;;
19782;SDS011;10051;40.294;-3.754;2023-11-19T05:45:57;17.80;;;9.63;;
19782;SDS011;10051;40.294;-3.754;2023-11-19T05:48:22;16.02;;;9.48;;
19782;SDS011;10051;40.294;-3.754;2023-11-19T05:50:49;18.98;;;10.02;;
19782;SDS011;10051;40.294;-3.754;2023-11-19T05:53:15;15.63;;;9.25;;
19782;SDS011;10051;40.294;-3.754;2023-11-19T05:55:41;17.25;;;9.65;;
19782;SDS011;10051;40.294;-3.754;2023-11-19T05:58:25;18.67;;;9.65;;
19782;SDS011;10051;40.294;-3.754;2023-11-19T06:00:52;14.73;;;9.43;;
19782;SDS011;10051;40.294;-3.754;2023-11-19T06:03:18;16.77;;;9.25;;
19782;SDS011;10051;40.294;-3.754;2023-11-19T06:05:47;17.23;;;9.18;;
19782;SDS011;10051;40.294;-3.754;2023-11-19T06:08:13;15.30;;;9.05;;
19782;SDS011;10051;40.294;-3.754;2023-11-19T06:10:40;13.43;;;8.60;;
19782;SDS011;10051;40.294;-3.754;2023-11-19T06:13:06;13.13;;;7.93;;
19782;SDS011;10051;40.294;-3.754;2023-11-19T06:15:32;11.90;;;7.82;;
19782;SDS011;10051;40.294;-3.754;2023-11-19T06:17:58;12.52;;;7.80;;
19782;SDS011;10051;40.294;-3.754;2023-11-19T06:20:26;11.43;;;7.40;;
19782;SDS011;10051;40.294;-3.754;2023-11-19T06:22:54;10.85;;;7.28;;
19782;SDS011;10051;40.294;-3.754;2023-11-19T06:25:20;11.30;;;7.50;;
19782;SDS011;10051;40.294;-3.754;2023-11-19T06:27:49;14.15;;;7.95;;
19782;SDS011;10051;40.294;-3.754;2023-11-19T06:30:15;13.68;;;8.23;;
19782;SDS011;10051;40.294;-3.754;2023-11-19T06:32:41;12.48;;;7.85;;
19782;SDS011;10051;40.294;-3.754;2023-11-19T06:35:07;12.60;;;8.38;;
19782;SDS011;10051;40.294;-3.754;2023-11-19T06:37:34;12.57;;;8.00;;
19782;SDS011;10051;40.294;-3.754;2023-11-19T06:40:09;14.25;;;8.05;;
19782;SDS011;10051;40.294;-3.754;2023-11-19T06:42:35;15.32;;;7.97;;
19782;SDS011;10051;40.294;-3.754;2023-11-19T06:45:02;13.90;;;8.20;;
19782;SDS011;10051;40.294;-3.754;2023-11-19T06:47:31;11.55;;;8.15;;
19782;SDS011;10051;40.294;-3.754;2023-11-19T06:49:59;12.27;;;7.90;;
19782;SDS011;10051;40.294;-3.754;2023-11-19T06:52:25;17.33;;;8.40;;
19782;SDS011;10051;40.294;-3.754;2023-11-19T06:54:57;14.70;;;8.55;;
19782;SDS011;10051;40.294;-3.754;2023-11-19T06:57:23;17.63;;;8.40;;
19782;SDS011;10051;40.294;-3.754;2023-11-19T06:59:48;14.32;;;8.70;;
19782;SDS011;10051;40.294;-3.754;2023-11-19T07:02:14;13.55;;;8.68;;
19782;SDS011;10051;40.294;-3.754;2023-11-19T07:04:40;14.15;;;8.82;;
19782;SDS011;10051;40.294;-3.754;2023-11-19T07:07:05;13.38;;;8.45;;
19782;SDS011;10051;40.294;-3.754;2023-11-19T07:09:31;13.07;;;8.60;;
19782;SDS011;10051;40.294;-3.754;2023-11-19T07:11:57;14.07;;;8.95;;
19782;SDS011;10051;40.294;-3.754;2023-11-19T07:14:25;12.30;;;8.38;;
19782;SDS011;10051;40.294;-3.754;2023-11-19T07:16:51;14.68;;;8.95;;
19782;SDS011;10051;40.294;-3.754;2023-11-19T07:19:17;14.60;;;8.32;;
19782;SDS011;10051;40.294;-3.754;2023-11-19T07:21:43;12.77;;;8.27;;
19782;SDS011;10051;40.294;-3.754;2023-11-19T07:24:14;16.30;;;8.30;;
19782;SDS011;10051;40.294;-3.754;2023-11-19T07:26:45;13.38;;;7.70;;
19782;SDS011;10051;40.294;-3.754;2023-11-19T07:29:12;12.18;;;8.05;;
19782;SDS011;10051;40.294;-3.754;2023-11-19T07:31:38;15.40;;;8.20;;
19782;SDS011;10051;40.294;-3.754;2023-11-19T07:34:04;12.32;;;7.90;;
19782;SDS011;10051;40.294;-3.754;2023-11-19T07:36:31;13.25;;;8.65;;
19782;SDS011;10051;40.294;-3.754;2023-11-19T07:38:58;12.30;;;8.18;;
19782;SDS011;10051;40.294;-3.754;2023-11-19T07:41:24;12.63;;;7.68;;
19782;SDS011;10051;40.294;-3.754;2023-11-19T07:43:50;14.70;;;8.18;;
19782;SDS011;10051;40.294;-3.754;2023-11-19T07:46:17;12.30;;;8.27;;
19782;SDS011;10051;40.294;-3.754;2023-11-19T07:48:44;14.85;;;8.90;;
19782;SDS011;10051;40.294;-3.754;2023-11-19T07:51:12;12.65;;;8.73;;
19782;SDS011;10051;40.294;-3.754;2023-11-19T07:53:38;14.45;;;8.88;;
19782;SDS011;10051;40.294;-3.754;2023-11-19T07:56:06;15.23;;;9.43;;
19782;SDS011;10051;40.294;-3.754;2023-11-19T07:58:32;15.88;;;9.30;;
19782;SDS011;10051;40.294;-3.754;2023-11-19T08:01:06;16.85;;;9.55;;
19782;SDS011;10051;40.294;-3.754;2023-11-19T08:03:33;16.58;;;9.43;;
19782;SDS011;10051;40.294;-3.754;2023-11-19T08:05:59;13.93;;;9.18;;
19782;SDS011;10051;40.294;-3.754;2023-11-19T08:08:27;14.57;;;8.55;;
19782;SDS011;10051;40.294;-3.754;2023-11-19T08:10:58;14.35;;;8.73;;
19782;SDS011;10051;40.294;-3.754;2023-11-19T08:13:32;12.15;;;8.07;;
19782;SDS011;10051;40.294;-3.754;2023-11-19T08:15:58;13.60;;;8.82;;
19782;SDS011;10051;40.294;-3.754;2023-11-19T08:18:24;16.80;;;9.05;;
19782;SDS011;10051;40.294;-3.754;2023-11-19T08:20:50;17.23;;;9.65;;
19782;SDS011;10051;40.294;-3.754;2023-11-19T08:23:18;15.23;;;8.98;;
19782;SDS011;10051;40.294;-3.754;2023-11-19T08:25:45;13.18;;;8.35;;
19782;SDS011;10051;40.294;-3.754;2023-11-19T08:28:10;15.32;;;8.63;;
19782;SDS011;10051;40.294;-3.754;2023-11-19T08:30:36;12.98;;;8.45;;
19782;SDS011;10051;40.294;-3.754;2023-11-19T08:33:02;14.82;;;8.32;;
19782;SDS011;10051;40.294;-3.754;2023-11-19T08:35:28;12.20;;;8.70;;
19782;SDS011;10051;40.294;-3.754;2023-11-19T08:37:55;12.73;;;8.50;;
19782;SDS011;10051;40.294;-3.754;2023-11-19T08:40:20;15.10;;;8.27;;
19782;SDS011;10051;40.294;-3.754;2023-11-19T08:42:46;12.82;;;8.05;;
19782;SDS011;10051;40.294;-3.754;2023-11-19T08:45:12;25.50;;;8.95;;
19782;SDS011;10051;40.294;-3.754;2023-11-19T08:47:38;13.20;;;8.63;;
19782;SDS011;10051;40.294;-3.754;2023-11-19T08:50:05;11.23;;;8.45;;
19782;SDS011;10051;40.294;-3.754;2023-11-19T08:52:31;14.40;;;8.38;;
19782;SDS011;10051;40.294;-3.754;2023-11-19T08:54:57;12.63;;;8.50;;
19782;SDS011;10051;40.294;-3.754;2023-11-19T08:57:22;12.15;;;7.97;;
19782;SDS011;10051;40.294;-3.754;2023-11-19T08:59:48;12.90;;;8.02;;
19782;SDS011;10051;40.294;-3.754;2023-11-19T09:02:14;11.82;;;7.95;;
19782;SDS011;10051;40.294;-3.754;2023-11-19T09:04:40;16.05;;;7.78;;
19782;SDS011;10051;40.294;-3.754;2023-11-19T09:07:06;13.90;;;8.45;;
19782;SDS011;10051;40.294;-3.754;2023-11-19T09:09:34;14.35;;;7.82;;
19782;SDS011;10051;40.294;-3.754;2023-11-19T09:12:01;13.68;;;8.05;;
19782;SDS011;10051;40.294;-3.754;2023-11-19T09:14:29;14.48;;;8.27;;
19782;SDS011;10051;40.294;-3.754;2023-11-19T09:16:56;13.57;;;7.65;;
19782;SDS011;10051;40.294;-3.754;2023-11-19T09:19:26;14.07;;;7.82;;
19782;SDS011;10051;40.294;-3.754;2023-11-19T09:21:52;13.32;;;8.02;;
19782;SDS011;10051;40.294;-3.754;2023-11-19T09:24:18;11.98;;;7.00;;
19782;SDS011;10051;40.294;-3.754;2023-11-19T09:26:44;12.32;;;7.40;;
19782;SDS011;10051;40.294;-3.754;2023-11-19T09:29:10;15.05;;;7.60;;
19782;SDS011;10051;40.294;-3.754;2023-11-19T09:31:39;12.30;;;7.97;;
19782;SDS011;10051;40.294;-3.754;2023-11-19T09:34:08;14.05;;;8.07;;
19782;SDS011;10051;40.294;-3.754;2023-11-19T09:36:34;12.95;;;7.45;;
19782;SDS011;10051;40.294;-3.754;2023-11-19T09:39:00;16.90;;;7.80;;
19782;SDS011;10051;40.294;-3.754;2023-11-19T09:41:30;14.30;;;7.80;;
19782;SDS011;10051;40.294;-3.754;2023-11-19T09:43:57;10.82;;;7.30;;
19782;SDS011;10051;40.294;-3.754;2023-11-19T09:46:27;14.38;;;6.85;;
19782;SDS011;10051;40.294;-3.754;2023-11-19T09:48:55;12.48;;;6.78;;
19782;SDS011;10051;40.294;-3.754;2023-11-19T09:51:24;11.98;;;6.72;;
19782;SDS011;10051;40.294;-3.754;2023-11-19T09:53:52;13.75;;;6.93;;
19782;SDS011;10051;40.294;-3.754;2023-11-19T09:56:19;14.75;;;7.13;;
19782;SDS011;10051;40.294;-3.754;2023-11-19T09:58:47;12.13;;;6.50;;
19782;SDS011;10051;40.294;-3.754;2023-11-19T10:01:13;10.82;;;6.55;;
19782;SDS011;10051;40.294;-3.754;2023-11-19T10:03:39;11.02;;;6.68;;
19782;SDS011;10051;40.294;-3.754;2023-11-19T10:06:09;9.40;;;6.10;;
19782;SDS011;10051;40.294;-3.754;2023-11-19T10:08:39;10.98;;;5.97;;
19782;SDS011;10051;40.294;-3.754;2023-11-19T10:11:08;10.68;;;6.70;;
19782;SDS011;10051;40.294;-3.754;2023-11-19T10:13:38;9.02;;;6.30;;
19782;SDS011;10051;40.294;-3.754;2023-11-19T10:16:07;10.18;;;6.25;;
19782;SDS011;10051;40.294;-3.754;2023-11-19T10:18:34;12.23;;;7.20;;
19782;SDS011;10051;40.294;-3.754;2023-11-19T10:21:06;14.70;;;7.55;;
19782;SDS011;10051;40.294;-3.754;2023-11-19T10:23:53;14.07;;;7.47;;
19782;SDS011;10051;40.294;-3.754;2023-11-19T10:26:19;12.40;;;7.93;;
19782;SDS011;10051;40.294;-3.754;2023-11-19T10:28:46;13.23;;;7.78;;
19782;SDS011;10051;40.294;-3.754;2023-11-19T10:31:16;14.15;;;8.23;;
19782;SDS011;10051;40.294;-3.754;2023-11-19T10:33:43;15.88;;;8.52;;
19782;SDS011;10051;40.294;-3.754;2023-11-19T10:36:12;15.25;;;7.80;;
19782;SDS011;10051;40.294;-3.754;2023-11-19T10:38:38;16.98;;;8.77;;
19782;SDS011;10051;40.294;-3.754;2023-11-19T10:41:05;13.25;;;7.50;;
19782;SDS011;10051;40.294;-3.754;2023-11-19T10:43:31;14.32;;;7.45;;
19782;SDS011;10051;40.294;-3.754;2023-11-19T10:46:13;10.02;;;6.68;;
19782;SDS011;10051;40.294;-3.754;2023-11-19T10:48:46;13.07;;;5.75;;
19782;SDS011;10051;40.294;-3.754;2023-11-19T10:51:11;10.13;;;5.20;;
19782;SDS011;10051;40.294;-3.754;2023-11-19T10:53:46;8.77;;;5.30;;
19782;SDS011;10051;40.294;-3.754;2023-11-19T10:56:16;13.13;;;5.68;;
19782;SDS011;10051;40.294;-3.754;2023-11-19T10:58:48;10.57;;;5.22;;
19782;SDS011;10051;40.294;-3.754;2023-11-19T11:01:21;10.68;;;5.43;;
19782;SDS011;10051;40.294;-3.754;2023-11-19T11:03:52;8.32;;;5.18;;
19782;SDS011;10051;40.294;-3.754;2023-11-19T11:06:22;10.35;;;5.07;;
19782;SDS011;10051;40.294;-3.754;2023-11-19T11:08:52;8.05;;;5.18;;
19782;SDS011;10051;40.294;-3.754;2023-11-19T11:11:20;8.60;;;4.80;;
19782;SDS011;10051;40.294;-3.754;2023-11-19T11:13:48;8.43;;;5.40;;
19782;SDS011;10051;40.294;-3.754;2023-11-19T11:16:18;9.32;;;4.70;;
19782;SDS011;10051;40.294;-3.754;2023-11-19T11:18:47;11.57;;;5.30;;
19782;SDS011;10051;40.294;-3.754;2023-11-19T11:21:15;12.27;;;5.13;;
19782;SDS011;10051;40.294;-3.754;2023-11-19T11:29:13;11.40;;;5.30;;
19782;SDS011;10051;40.294;-3.754;2023-11-19T11:39:39;12.60;;;5.55;;
19782;SDS011;10051;40.294;-3.754;2023-11-19T11:44:59;10.95;;;5.57;;
19782;SDS011;10051;40.294;-3.754;2023-11-19T11:50:08;7.57;;;4.32;;
19782;SDS011;10051;40.294;-3.754;2023-11-19T11:57:52;8.73;;;3.80;;
19782;SDS011;10051;40.294;-3.754;2023-11-19T12:00:38;7.88;;;4.07;;
19782;SDS011;10051;40.294;-3.754;2023-11-19T12:03:06;6.15;;;3.47;;
19782;SDS011;10051;40.294;-3.754;2023-11-19T12:05:43;8.25;;;3.70;;
19782;SDS011;10051;40.294;-3.754;2023-11-19T12:08:11;5.38;;;3.30;;
19782;SDS011;10051;40.294;-3.754;2023-11-19T12:10:46;8.20;;;4.10;;
19782;SDS011;10051;40.294;-3.754;2023-11-19T12:13:14;7.95;;;4.63;;
19782;SDS011;10051;40.294;-3.754;2023-11-19T12:18:28;6.53;;;3.63;;
19782;SDS011;10051;40.294;-3.754;2023-11-19T12:20:59;6.18;;;4.40;;
19782;SDS011;10051;40.294;-3.754;2023-11-19T12:23:29;8.23;;;4.85;;
19782;SDS011;10051;40.294;-3.754;2023-11-19T12:25:55;10.32;;;4.70;;
19782;SDS011;10051;40.294;-3.754;2023-11-19T12:28:22;6.68;;;5.03;;
19782;SDS011;10051;40.294;-3.754;2023-11-19T12:30:49;8.32;;;4.75;;
19782;SDS011;10051;40.294;-3.754;2023-11-19T12:33:16;8.88;;;4.97;;
19782;SDS011;10051;40.294;-3.754;2023-11-19T12:35:43;9.23;;;5.63;;
19782;SDS011;10051;40.294;-3.754;2023-11-19T12:38:19;11.88;;;6.05;;
19782;SDS011;10051;40.294;-3.754;2023-11-19T12:41:08;8.43;;;5.40;;
19782;SDS011;10051;40.294;-3.754;2023-11-19T12:43:37;7.70;;;4.82;;
19782;SDS011;10051;40.294;-3.754;2023-11-19T12:46:21;10.18;;;4.97;;
19782;SDS011;10051;40.294;-3.754;2023-11-19T12:48:48;5.90;;;3.95;;
19782;SDS011;10051;40.294;-3.754;2023-11-19T12:51:14;5.40;;;3.67;;
19782;SDS011;10051;40.294;-3.754;2023-11-19T12:53:47;5.82;;;3.30;;
19782;SDS011;10051;40.294;-3.754;2023-11-19T12:56:19;4.57;;;3.20;;
19782;SDS011;10051;40.294;-3.754;2023-11-19T12:58:46;5.55;;;3.53;;
19782;SDS011;10051;40.294;-3.754;2023-11-19T13:01:15;3.95;;;2.95;;
19782;SDS011;10051;40.294;-3.754;2023-11-19T13:03:43;4.20;;;3.08;;
19782;SDS011;10051;40.294;-3.754;2023-11-19T13:06:09;4.85;;;3.22;;
19782;SDS011;10051;40.294;-3.754;2023-11-19T13:08:37;4.95;;;3.00;;
19782;SDS011;10051;40.294;-3.754;2023-11-19T13:11:03;5.35;;;3.38;;
19782;SDS011;10051;40.294;-3.754;2023-11-19T13:13:29;5.53;;;3.47;;
19782;SDS011;10051;40.294;-3.754;2023-11-19T13:16:04;4.57;;;3.03;;
19782;SDS011;10051;40.294;-3.754;2023-11-19T13:18:31;7.22;;;3.42;;
19782;SDS011;10051;40.294;-3.754;2023-11-19T13:20:56;4.20;;;3.00;;
19782;SDS011;10051;40.294;-3.754;2023-11-19T13:23:22;4.63;;;3.20;;
19782;SDS011;10051;40.294;-3.754;2023-11-19T13:25:48;4.50;;;2.72;;
19782;SDS011;10051;40.294;-3.754;2023-11-19T13:28:14;4.20;;;2.70;;
19782;SDS011;10051;40.294;-3.754;2023-11-19T13:30:40;4.65;;;2.90;;
19782;SDS011;10051;40.294;-3.754;2023-11-19T13:33:05;4.32;;;3.05;;
19782;SDS011;10051;40.294;-3.754;2023-11-19T13:35:31;5.15;;;2.72;;
19782;SDS011;10051;40.294;-3.754;2023-11-19T13:38:03;5.70;;;3.08;;
19782;SDS011;10051;40.294;-3.754;2023-11-19T13:40:29;4.60;;;2.70;;
19782;SDS011;10051;40.294;-3.754;2023-11-19T13:42:54;3.42;;;2.47;;
19782;SDS011;10051;40.294;-3.754;2023-11-19T13:45:20;4.60;;;2.80;;
19782;SDS011;10051;40.294;-3.754;2023-11-19T13:47:46;11.77;;;8.07;;
19782;SDS011;10051;40.294;-3.754;2023-11-19T13:50:13;6.20;;;3.67;;
19782;SDS011;10051;40.294;-3.754;2023-11-19T13:52:42;4.80;;;2.72;;
19782;SDS011;10051;40.294;-3.754;2023-11-19T13:55:12;5.03;;;2.80;;
19782;SDS011;10051;40.294;-3.754;2023-11-19T13:57:42;4.03;;;2.60;;
19782;SDS011;10051;40.294;-3.754;2023-11-19T14:00:10;5.97;;;2.40;;
19782;SDS011;10051;40.294;-3.754;2023-11-19T14:02:44;5.68;;;3.00;;
19782;SDS011;10051;40.294;-3.754;2023-11-19T14:05:12;4.28;;;3.03;;
19782;SDS011;10051;40.294;-3.754;2023-11-19T14:07:41;6.07;;;3.35;;
19782;SDS011;10051;40.294;-3.754;2023-11-19T14:10:07;6.65;;;3.10;;
19782;SDS011;10051;40.294;-3.754;2023-11-19T14:12:37;6.57;;;3.22;;
19782;SDS011;10051;40.294;-3.754;2023-11-19T14:15:04;6.03;;;3.17;;
19782;SDS011;10051;40.294;-3.754;2023-11-19T14:17:39;3.80;;;2.72;;
19782;SDS011;10051;40.294;-3.754;2023-11-19T14:20:05;4.55;;;2.58;;
19782;SDS011;10051;40.294;-3.754;2023-11-19T14:22:41;7.32;;;2.88;;
19782;SDS011;10051;40.294;-3.754;2023-11-19T14:25:11;6.82;;;3.00;;
19782;SDS011;10051;40.294;-3.754;2023-11-19T14:27:37;5.80;;;2.70;;
19782;SDS011;10051;40.294;-3.754;2023-11-19T14:30:06;4.07;;;2.50;;
19782;SDS011;10051;40.294;-3.754;2023-11-19T14:32:37;6.90;;;3.13;;
19782;SDS011;10051;40.294;-3.754;2023-11-19T14:35:04;6.65;;;4.10;;
19782;SDS011;10051;40.294;-3.754;2023-11-19T14:37:30;5.18;;;2.97;;
19782;SDS011;10051;40.294;-3.754;2023-11-19T14:39:57;3.95;;;2.33;;
19782;SDS011;10051;40.294;-3.754;2023-11-19T14:42:23;5.07;;;2.78;;
19782;SDS011;10051;40.294;-3.754;2023-11-19T14:44:50;2.80;;;2.30;;
19782;SDS011;10051;40.294;-3.754;2023-11-19T14:47:18;3.78;;;2.40;;
19782;SDS011;10051;40.294;-3.754;2023-11-19T14:49:44;3.72;;;2.40;;
19782;SDS011;10051;40.294;-3.754;2023-11-19T14:52:09;7.40;;;2.67;;
19782;SDS011;10051;40.294;-3.754;2023-11-19T14:54:36;4.70;;;2.72;;